createdAt,value
2022-10-21T00:01:15.800Z,97119.50
2022-10-21T00:03:44.581Z,97110.34
2022-10-21T00:06:12.913Z,97104.47
2022-10-21T00:08:41.301Z,97101.09
2022-10-21T00:11:10.709Z,97108.91
2022-10-21T00:13:39.731Z,97121.63
2022-10-21T00:16:15.616Z,97121.09
2022-10-21T00:18:47.877Z,97108.13
2022-10-21T00:21:21.878Z,97090.66
2022-10-21T00:23:49.868Z,97042.41
2022-10-21T00:26:19.420Z,97023.19
2022-10-21T00:28:47.510Z,97048.66
2022-10-21T00:31:16.934Z,97069.91
2022-10-21T00:33:45.003Z,97091.75
2022-10-21T00:36:13.354Z,97079.63
2022-10-21T00:38:42.165Z,97082.19
2022-10-21T00:41:11.535Z,97112.59
2022-10-21T00:43:57.990Z,97109.50
2022-10-21T00:46:34.969Z,97109.94
2022-10-21T00:49:07.762Z,97122.25
2022-10-21T00:51:36.408Z,97129.94
2022-10-21T00:54:06.425Z,97118.66
2022-10-21T00:56:36.631Z,97103.28
2022-10-21T00:59:07.317Z,97085.06
2022-10-21T01:01:38.054Z,97075.53
2022-10-21T01:04:08.758Z,97055.63
2022-10-21T01:06:41.207Z,97049.66
2022-10-21T01:09:09.369Z,97050.19
2022-10-21T01:11:48.816Z,97055.38
2022-10-21T01:14:24.048Z,97067.63
2022-10-21T01:16:59.966Z,97080.56
2022-10-21T01:20:01.674Z,97069.97
2022-10-21T01:23:07.819Z,97059.38
2022-10-21T01:25:54.046Z,97045.81
2022-10-21T01:28:49.593Z,97033.25
2022-10-21T01:31:28.078Z,97012.22
2022-10-21T01:34:06.692Z,97014.63
2022-10-21T01:37:00.738Z,96998.72
2022-10-21T01:39:35.522Z,96992.84
2022-10-21T01:42:20.213Z,96994.03
2022-10-21T01:45:08.431Z,96998.44
2022-10-21T01:47:40.889Z,96994.13
2022-10-21T01:50:14.774Z,97002.09
2022-10-21T01:52:45.966Z,97003.91
2022-10-21T01:55:20.036Z,96995.03
2022-10-21T01:57:51.158Z,96994.81
2022-10-21T02:00:19.402Z,96988.53
2022-10-21T02:02:49.801Z,96972.84
2022-10-21T02:05:24.106Z,96977.53
2022-10-21T02:07:52.157Z,96983.25
2022-10-21T02:10:21.434Z,96987.94
2022-10-21T02:12:52.129Z,96995.91
2022-10-21T02:15:24.380Z,96984.22
2022-10-21T02:18:01.921Z,96970.78
2022-10-21T02:20:32.412Z,96976.03
2022-10-21T02:23:01.021Z,96985.59
2022-10-21T02:25:35.448Z,96993.78
2022-10-21T02:28:06.363Z,96991.84
2022-10-21T02:30:49.332Z,96995.53
2022-10-21T02:33:24.860Z,96999.06
2022-10-21T02:36:08.189Z,97001.22
2022-10-21T02:39:01.933Z,97007.94
2022-10-21T02:41:30.963Z,97003.44
2022-10-21T02:44:06.716Z,96999.69
2022-10-21T02:46:39.553Z,97002.88
2022-10-21T02:49:08.096Z,96986.88
2022-10-21T02:51:37.055Z,96984.97
2022-10-21T02:54:05.065Z,96982.38
2022-10-21T02:56:33.136Z,96975.94
2022-10-21T02:59:01.215Z,96969.88
2022-10-21T03:01:29.280Z,96980.53
2022-10-21T03:03:57.402Z,96976.06
2022-10-21T03:06:25.489Z,96978.50
2022-10-21T03:08:53.579Z,96981.78
2022-10-21T03:11:21.576Z,96982.44
2022-10-21T03:13:49.618Z,96973.50
2022-10-21T03:16:19.973Z,96970.47
2022-10-21T03:18:50.844Z,96973.50
2022-10-21T03:21:18.909Z,96969.38
2022-10-21T03:23:46.938Z,96980.91
2022-10-21T03:26:14.956Z,96968.03
2022-10-21T03:28:43.063Z,96969.53
2022-10-21T03:31:11.085Z,96957.91
2022-10-21T03:33:41.424Z,96947.19
2022-10-21T03:36:09.561Z,96947.66
2022-10-21T03:38:37.590Z,96943.69
2022-10-21T03:41:05.720Z,96942.09
2022-10-21T03:43:33.831Z,96942.03
2022-10-21T03:46:01.836Z,96926.59
2022-10-21T03:48:29.965Z,96913.22
2022-10-21T03:50:58.081Z,96906.75
2022-10-21T03:53:42.225Z,96913.13
2022-10-21T03:56:14.498Z,96916.53
2022-10-21T03:58:42.939Z,96923.44
2022-10-21T04:01:15.082Z,96921.81
2022-10-21T04:03:43.169Z,96907.06
2022-10-21T04:06:11.249Z,96902.94
2022-10-21T04:08:39.377Z,96889.59
2022-10-21T04:11:07.457Z,96890.03
2022-10-21T04:13:36.313Z,96888.41
2022-10-21T04:16:09.403Z,96869.84
2022-10-21T04:18:42.846Z,96854.19
2022-10-21T04:21:11.149Z,96840.91
2022-10-21T04:23:39.380Z,96831.00
2022-10-21T04:26:08.081Z,96819.16
2022-10-21T04:28:36.661Z,96814.16
2022-10-21T04:31:05.001Z,96798.78
2022-10-21T04:33:36.296Z,96781.31
2022-10-21T04:36:04.439Z,96756.50
2022-10-21T04:38:34.858Z,96751.56
2022-10-21T04:41:04.951Z,96744.66
2022-10-21T04:43:32.998Z,96722.09
2022-10-21T04:46:01.002Z,96724.03
2022-10-21T04:48:29.045Z,96715.38
2022-10-21T04:50:57.637Z,96708.50
2022-10-21T04:53:28.561Z,96720.44
2022-10-21T04:55:56.532Z,96706.03
2022-10-21T04:58:24.538Z,96704.09
2022-10-21T05:00:53.181Z,96703.63
2022-10-21T05:03:21.888Z,96696.78
2022-10-21T05:05:53.803Z,96696.38
2022-10-21T05:08:23.022Z,96698.38
2022-10-21T05:10:57.471Z,96714.00
2022-10-21T05:13:25.543Z,96730.69
2022-10-21T05:15:57.874Z,96709.34
2022-10-21T05:18:29.185Z,96690.38
2022-10-21T05:20:58.096Z,96680.81
2022-10-21T05:23:27.419Z,96678.63
2022-10-21T05:25:55.697Z,96683.34
2022-10-21T05:28:23.776Z,96688.59
2022-10-21T05:30:53.124Z,96671.91
2022-10-21T05:33:24.057Z,96669.97
2022-10-21T05:36:01.441Z,96661.00
2022-10-21T05:38:32.389Z,96648.03
2022-10-21T05:41:03.602Z,96645.56
2022-10-21T05:43:31.672Z,96647.81
2022-10-21T05:46:02.084Z,96678.06
2022-10-21T05:48:32.527Z,96713.72
2022-10-21T05:51:04.424Z,96722.00
2022-10-21T05:53:32.649Z,96718.56
2022-10-21T05:56:02.965Z,96730.84
2022-10-21T05:58:33.148Z,96745.03
2022-10-21T06:01:06.176Z,96737.06
2022-10-21T06:03:34.935Z,96733.25
2022-10-21T06:06:05.735Z,96730.84
2022-10-21T06:08:35.930Z,96716.84
2022-10-21T06:11:12.363Z,96721.56
2022-10-21T06:13:41.102Z,96721.56
2022-10-21T06:16:12.659Z,96702.09
2022-10-21T06:18:41.734Z,96688.81
2022-10-21T06:21:10.562Z,96662.84
2022-10-21T06:23:39.078Z,96665.44
2022-10-21T06:26:09.652Z,96680.59
2022-10-21T06:28:44.944Z,96667.44
2022-10-21T06:31:18.365Z,96668.59
2022-10-21T06:33:46.439Z,96659.84
2022-10-21T06:36:14.602Z,96660.09
2022-10-21T06:38:42.636Z,96662.34
2022-10-21T06:41:15.101Z,96669.91
2022-10-21T06:43:43.640Z,96667.59
2022-10-21T06:46:14.569Z,96645.84
2022-10-21T06:48:43.122Z,96656.44
2022-10-21T06:51:16.221Z,96666.72
2022-10-21T06:53:45.926Z,96666.34
2022-10-21T06:56:18.875Z,96653.84
2022-10-21T06:58:48.161Z,96660.13
2022-10-21T07:01:33.595Z,96670.84
2022-10-21T07:04:04.474Z,96656.81
2022-10-21T07:09:01.616Z,96633.84
2022-10-21T07:11:29.712Z,96659.66
2022-10-21T07:13:57.758Z,96670.66
2022-10-21T07:16:31.309Z,96669.13
2022-10-21T07:18:59.721Z,96670.16
2022-10-21T07:21:29.509Z,96673.97
2022-10-21T07:24:04.860Z,96654.50
2022-10-21T07:26:34.771Z,96643.78
2022-10-21T07:29:06.584Z,96642.66
2022-10-21T07:31:37.459Z,96638.09
2022-10-21T07:34:07.708Z,96629.25
2022-10-21T07:36:41.088Z,96621.66
2022-10-21T07:39:13.710Z,96619.50
2022-10-21T07:41:45.892Z,96625.84
2022-10-21T07:44:14.400Z,96631.19
2022-10-21T07:46:44.624Z,96625.59
2022-10-21T07:49:13.406Z,96625.97
2022-10-21T07:51:42.362Z,96622.16
2022-10-21T07:54:14.013Z,96633.59
2022-10-21T07:56:47.546Z,96638.09
2022-10-21T07:59:15.960Z,96634.22
2022-10-21T08:01:45.291Z,96617.84
2022-10-21T08:04:18.824Z,96632.38
2022-10-21T08:06:50.377Z,96633.97
2022-10-21T08:09:18.688Z,96641.59
2022-10-21T08:11:46.936Z,96639.78
2022-10-21T08:14:19.853Z,96631.78
2022-10-21T08:16:52.918Z,96647.56
2022-10-21T08:19:23.464Z,96662.94
2022-10-21T08:21:51.464Z,96654.63
2022-10-21T08:24:19.544Z,96650.84
2022-10-21T08:26:47.600Z,96644.81
2022-10-21T08:29:15.680Z,96645.13
2022-10-21T08:31:43.923Z,96653.63
2022-10-21T08:34:12.322Z,96656.28
2022-10-21T08:36:40.653Z,96660.13
2022-10-21T08:39:09.264Z,96649.06
2022-10-21T08:42:03.998Z,96636.91
2022-10-21T08:44:53.268Z,96637.78
2022-10-21T08:47:30.555Z,96630.19
2022-10-21T08:50:13.470Z,96630.56
2022-10-21T08:52:50.056Z,96639.44
2022-10-21T08:55:22.157Z,96628.75
2022-10-21T08:57:51.286Z,96629.53
2022-10-21T09:00:22.994Z,96640.63
2022-10-21T09:03:08.503Z,96639.50
2022-10-21T09:05:49.142Z,96647.50
2022-10-21T09:08:36.544Z,96660.50
2022-10-21T09:11:22.664Z,96666.66
2022-10-21T09:14:12.062Z,96666.31
2022-10-21T09:17:07.367Z,96667.06
2022-10-21T09:19:56.440Z,96681.16
2022-10-21T09:22:48.241Z,96689.44
2022-10-21T09:25:48.992Z,96687.09
2022-10-21T09:28:19.470Z,96684.50
2022-10-21T09:30:51.424Z,96678.00
2022-10-21T09:33:34.873Z,96687.13
2022-10-21T09:36:37.867Z,96691.44
2022-10-21T09:39:17.223Z,96704.81
2022-10-21T09:41:50.757Z,96697.66
2022-10-21T09:44:22.751Z,96690.09
2022-10-21T09:46:53.193Z,96689.03
2022-10-21T09:50:05.320Z,96691.38
2022-10-21T09:52:24.178Z,96698.19
2022-10-21T09:54:52.587Z,96687.09
2022-10-21T09:57:38.447Z,96709.31
2022-10-21T10:00:12.857Z,96704.06
2022-10-21T10:02:46.900Z,96691.56
2022-10-21T10:05:47.028Z,96682.81
2022-10-21T10:08:37.952Z,96692.72
2022-10-21T10:11:12.106Z,96686.31
2022-10-21T10:13:41.161Z,96686.69
2022-10-21T10:16:30.294Z,96676.09
2022-10-21T10:19:29.816Z,96670.00
2022-10-21T10:22:17.496Z,96667.34
2022-10-21T10:24:46.240Z,96657.47
2022-10-21T10:27:32.094Z,96668.16
2022-10-21T10:30:02.366Z,96665.16
2022-10-21T10:32:35.171Z,96670.50
2022-10-21T10:35:06.704Z,96674.72
2022-10-21T10:37:37.403Z,96660.97
2022-10-21T10:40:10.092Z,96659.47
2022-10-21T10:42:44.830Z,96658.25
2022-10-21T10:45:24.112Z,96656.34
2022-10-21T10:47:58.264Z,96656.38
2022-10-21T10:50:50.670Z,96654.50
2022-10-21T10:53:31.836Z,96654.50
2022-10-21T10:56:20.622Z,96650.69
2022-10-21T10:59:11.197Z,96660.91
2022-10-21T11:01:48.004Z,96659.00
2022-10-21T11:04:39.401Z,96653.66
2022-10-21T11:07:32.687Z,96650.78
2022-10-21T11:10:14.164Z,96655.03
2022-10-21T11:12:42.272Z,96643.63
2022-10-21T11:15:16.366Z,96629.50
2022-10-21T11:18:16.994Z,96623.81
2022-10-21T11:21:07.219Z,96627.66
2022-10-21T11:23:57.854Z,96621.16
2022-10-21T11:27:04.878Z,96625.72
2022-10-21T11:29:41.717Z,96623.81
2022-10-21T11:32:52.617Z,96627.25
2022-10-21T11:35:36.067Z,96625.41
2022-10-21T11:38:31.049Z,96617.78
2022-10-21T11:41:03.159Z,96604.88
2022-10-21T11:43:50.663Z,96605.25
2022-10-21T11:46:31.197Z,96608.72
2022-10-21T11:49:13.709Z,96609.44
2022-10-21T11:52:11.737Z,96618.63
2022-10-21T11:55:18.370Z,96619.34
2022-10-21T11:58:30.436Z,96607.13
2022-10-21T12:01:30.215Z,96607.13
2022-10-21T12:04:15.326Z,96609.06
2022-10-21T12:06:57.564Z,96595.88
2022-10-21T12:09:34.920Z,96592.09
2022-10-21T12:12:39.292Z,96601.63
2022-10-21T12:15:21.551Z,96591.34
2022-10-21T12:17:52.817Z,96590.97
2022-10-21T12:20:27.583Z,96592.88
2022-10-21T12:23:03.971Z,96588.72
2022-10-21T12:25:33.645Z,96584.16
2022-10-21T12:28:19.652Z,96593.31
2022-10-21T12:30:53.393Z,96583.41
2022-10-21T12:33:29.788Z,96583.09
2022-10-21T12:36:25.793Z,96574.34
2022-10-21T12:39:00.113Z,96575.44
2022-10-21T12:41:38.647Z,96581.50
2022-10-21T12:44:20.935Z,96588.44
2022-10-21T12:47:11.101Z,96582.00
2022-10-21T12:49:44.970Z,96575.13
2022-10-21T12:52:25.371Z,96572.06
2022-10-21T12:54:56.467Z,96570.22
2022-10-21T12:57:34.033Z,96564.16
2022-10-21T13:03:04.403Z,96557.63
2022-10-21T13:05:38.716Z,96551.91
2022-10-21T13:08:21.726Z,96556.91
2022-10-21T13:11:04.842Z,96547.03
2022-10-21T13:13:49.361Z,96546.28
2022-10-21T13:16:20.249Z,96544.75
2022-10-21T13:19:03.547Z,96539.44
2022-10-21T13:21:41.220Z,96546.25
2022-10-21T13:24:20.506Z,96558.44
2022-10-21T13:27:04.443Z,96561.84
2022-10-21T13:29:35.236Z,96551.16
2022-10-21T13:32:15.642Z,96550.75
2022-10-21T13:35:11.101Z,96555.34
2022-10-21T13:38:03.253Z,96559.94
2022-10-21T13:40:46.030Z,96570.69
2022-10-21T13:43:22.247Z,96571.81
2022-10-21T13:45:53.514Z,96576.38
2022-10-21T13:48:25.541Z,96576.47
2022-10-21T13:50:54.083Z,96573.00
2022-10-21T13:53:28.195Z,96570.72
2022-10-21T13:56:03.942Z,96568.84
2022-10-21T13:58:36.932Z,96560.03
2022-10-21T14:01:16.617Z,96564.97
2022-10-21T14:03:45.065Z,96560.78
2022-10-21T14:06:25.817Z,96568.41
2022-10-21T14:08:55.705Z,96563.81
2022-10-21T14:11:36.504Z,96564.91
2022-10-21T14:14:13.485Z,96568.03
2022-10-21T14:16:48.421Z,96571.06
2022-10-21T14:19:20.520Z,96557.88
2022-10-21T14:21:52.346Z,96556.75
2022-10-21T14:24:32.691Z,96556.78
2022-10-21T14:27:02.048Z,96551.41
2022-10-21T14:29:33.792Z,96545.69
2022-10-21T14:32:04.001Z,96541.81
2022-10-21T14:34:36.914Z,96541.84
2022-10-21T14:37:09.528Z,96542.22
2022-10-21T14:39:40.579Z,96541.81
2022-10-21T14:42:21.284Z,96551.41
2022-10-21T14:44:52.423Z,96556.66
2022-10-21T14:47:24.788Z,96545.66
2022-10-21T14:50:00.427Z,96549.44
2022-10-21T14:52:39.797Z,96552.09
2022-10-21T14:55:11.188Z,96539.94
2022-10-21T14:57:48.032Z,96536.47
2022-10-21T15:00:30.094Z,96541.81
2022-10-21T15:03:02.067Z,96534.56
2022-10-21T15:05:32.722Z,96549.75
2022-10-21T15:08:16.234Z,96541.81
2022-10-21T15:10:44.319Z,96530.00
2022-10-21T15:13:21.556Z,96535.63
2022-10-21T15:16:04.004Z,96538.72
2022-10-21T15:18:45.927Z,96536.06
2022-10-21T15:21:25.087Z,96532.25
2022-10-21T15:23:58.560Z,96536.44
2022-10-21T15:26:37.453Z,96524.75
2022-10-21T15:29:36.073Z,96515.53
2022-10-21T15:32:07.501Z,96515.91
2022-10-21T15:34:35.565Z,96514.78
2022-10-21T15:37:03.919Z,96509.84
2022-10-21T15:39:31.914Z,96497.97
2022-10-21T15:42:00.741Z,96501.75
2022-10-21T15:44:33.876Z,96492.94
2022-10-21T15:47:07.353Z,96502.81
2022-10-21T15:49:36.569Z,96500.25
2022-10-21T15:52:05.435Z,96499.88
2022-10-21T15:54:33.467Z,96493.03
2022-10-21T15:57:02.671Z,96500.25
2022-10-21T15:59:32.856Z,96491.47
2022-10-21T16:02:01.364Z,96491.03
2022-10-21T16:04:31.732Z,96488.75
2022-10-21T16:06:59.739Z,96487.91
2022-10-21T16:09:31.910Z,96483.69
2022-10-21T16:12:01.456Z,96483.31
2022-10-21T16:14:31.142Z,96479.72
2022-10-21T16:17:00.193Z,96487.19
2022-10-21T16:19:28.813Z,96483.41
2022-10-21T16:21:57.331Z,96483.34
2022-10-21T16:24:25.471Z,96489.31
2022-10-21T16:26:53.532Z,96487.00
2022-10-21T16:29:26.452Z,96479.31
2022-10-21T16:31:54.519Z,96473.56
2022-10-21T16:34:22.549Z,96475.75
2022-10-21T16:36:50.647Z,96480.06
2022-10-21T16:39:22.689Z,96471.91
2022-10-21T16:41:53.950Z,96474.22
2022-10-21T16:44:24.868Z,96477.03
2022-10-21T16:46:57.035Z,96467.81
2022-10-21T16:49:29.036Z,96464.72
2022-10-21T16:51:57.151Z,96468.38
2022-10-21T16:54:28.218Z,96457.97
2022-10-21T16:56:59.577Z,96458.94
2022-10-21T16:59:28.444Z,96457.19
2022-10-21T17:01:59.414Z,96465.69
2022-10-21T17:04:27.650Z,96465.69
2022-10-21T17:06:57.638Z,96467.81
2022-10-21T17:09:28.653Z,96480.78
2022-10-21T17:11:56.714Z,96462.09
2022-10-21T17:14:24.828Z,96460.34
2022-10-21T17:16:55.244Z,96448.06
2022-10-21T17:19:23.715Z,96436.63
2022-10-21T17:21:51.776Z,96444.84
2022-10-21T17:24:22.132Z,96436.97
2022-10-21T17:26:50.297Z,96443.88
2022-10-21T17:29:18.329Z,96446.59
2022-10-21T17:31:46.787Z,96439.38
2022-10-21T17:34:36.051Z,96432.09
2022-10-21T17:37:07.324Z,96441.97
2022-10-21T17:39:35.458Z,96439.56
2022-10-21T17:42:03.521Z,96432.84
2022-10-21T17:44:31.883Z,96448.47
2022-10-21T17:46:59.940Z,96436.78
2022-10-21T17:49:28.132Z,96450.75
2022-10-21T17:51:56.229Z,96450.75
2022-10-21T17:54:27.951Z,96437.31
2022-10-21T17:56:58.414Z,96439.31
2022-10-21T17:59:26.492Z,96430.88
2022-10-21T18:01:54.474Z,96442.25
2022-10-21T18:04:25.376Z,96441.81
2022-10-21T18:06:53.389Z,96431.97
2022-10-21T18:09:21.564Z,96423.28
2022-10-21T18:11:49.731Z,96409.06
2022-10-21T18:14:17.788Z,96413.28
2022-10-21T18:16:48.380Z,96412.47
2022-10-21T18:19:17.719Z,96417.47
2022-10-21T18:21:45.725Z,96416.31
2022-10-21T18:24:13.783Z,96410.94
2022-10-21T18:26:42.966Z,96405.09
2022-10-21T18:29:11.107Z,96400.66
2022-10-21T18:31:39.896Z,96397.97
2022-10-21T18:34:08.411Z,96384.28
2022-10-21T18:36:36.585Z,96388.78
2022-10-21T18:39:05.684Z,96386.53
2022-10-21T18:41:33.672Z,96377.00
2022-10-21T18:44:04.906Z,96372.06
2022-10-21T18:46:33.055Z,96376.63
2022-10-21T18:49:04.640Z,96380.47
2022-10-21T18:51:32.869Z,96383.09
2022-10-21T18:54:00.988Z,96379.06
2022-10-21T18:56:29.148Z,96375.63
2022-10-21T18:58:59.808Z,96362.91
2022-10-21T19:01:30.798Z,96371.31
2022-10-21T19:04:01.860Z,96371.28
2022-10-21T19:06:32.279Z,96366.84
2022-10-21T19:09:01.423Z,80329.19
2022-10-21T19:11:30.260Z,80329.19
2022-10-21T19:14:00.853Z,80329.19
2022-10-21T19:16:29.044Z,80329.19
2022-10-21T19:18:57.612Z,80329.19
2022-10-21T19:21:26.311Z,80329.19
2022-10-21T19:23:54.857Z,80329.19
2022-10-21T19:26:23.927Z,80329.19
2022-10-21T19:28:52.178Z,80329.19
2022-10-21T19:31:23.037Z,80329.19
2022-10-21T19:33:52.384Z,80329.19
2022-10-21T19:36:20.392Z,80329.19
2022-10-21T19:38:48.553Z,80329.19
2022-10-21T19:41:22.232Z,80329.19
2022-10-21T19:43:51.192Z,80329.19
2022-10-21T19:46:23.639Z,80329.19
2022-10-21T19:48:54.124Z,80329.19
2022-10-21T19:51:26.537Z,80329.19
2022-10-21T19:53:58.265Z,80329.19
2022-10-21T19:56:29.552Z,80329.19
2022-10-21T19:59:00.944Z,80329.19
2022-10-21T20:01:29.439Z,80329.19
2022-10-21T20:03:57.736Z,80329.19
2022-10-21T20:06:29.260Z,80329.19
2022-10-21T20:09:04.476Z,80329.19
2022-10-21T20:11:35.741Z,80329.19
2022-10-21T20:14:04.238Z,80329.19
2022-10-21T20:16:34.738Z,80329.19
2022-10-21T20:19:04.379Z,80329.19
2022-10-21T20:21:36.031Z,80329.19
2022-10-21T20:24:04.957Z,80329.19
2022-10-21T20:26:33.055Z,80329.19
2022-10-21T20:29:01.763Z,80329.19
2022-10-21T20:31:33.412Z,80329.19
2022-10-21T20:34:01.556Z,80329.19
2022-10-21T20:36:34.754Z,80329.19
2022-10-21T20:39:05.818Z,80329.19
2022-10-21T20:41:38.099Z,80329.19
2022-10-21T20:44:13.914Z,80329.19
2022-10-21T20:46:41.993Z,80329.19
2022-10-21T20:49:10.513Z,80329.19
2022-10-21T20:51:40.890Z,80329.19
2022-10-21T20:54:16.762Z,80329.19
2022-10-21T20:56:45.440Z,80329.19
2022-10-21T20:59:17.340Z,80329.19
2022-10-21T21:01:47.865Z,80329.19
2022-10-21T21:04:17.961Z,80329.19
2022-10-21T21:06:49.953Z,80329.19
2022-10-21T21:12:13.197Z,80329.19
2022-10-21T21:14:41.296Z,80329.19
2022-10-21T21:17:09.533Z,80329.19
2022-10-21T21:19:38.929Z,80329.19
2022-10-21T21:22:07.044Z,80329.19
2022-10-21T21:24:35.117Z,80329.19
2022-10-21T21:27:03.188Z,80329.19
2022-10-21T21:29:31.288Z,80329.19
2022-10-21T21:32:02.007Z,80329.19
2022-10-21T21:34:32.456Z,80329.19
2022-10-21T21:37:00.700Z,80329.19
2022-10-21T21:39:28.844Z,80329.19
2022-10-21T21:41:57.290Z,80329.19
2022-10-21T21:44:25.499Z,80329.19
2022-10-21T21:46:56.411Z,80329.19
2022-10-21T21:49:24.497Z,80329.19
2022-10-21T21:51:52.522Z,80329.19
2022-10-21T21:54:25.524Z,80329.19
2022-10-21T21:57:00.678Z,80329.19
2022-10-21T21:59:41.704Z,80329.19
2022-10-21T22:02:09.698Z,80329.19
2022-10-21T22:04:37.822Z,80329.19
2022-10-21T22:07:08.529Z,80329.19
2022-10-21T22:09:39.515Z,80329.19
2022-10-21T22:12:07.643Z,80329.19
2022-10-21T22:14:35.735Z,80329.19
2022-10-21T22:17:06.812Z,80329.19
2022-10-21T22:19:34.954Z,80329.19
2022-10-21T22:22:03.006Z,80329.19
2022-10-21T22:24:35.417Z,80329.19
2022-10-21T22:27:03.514Z,80329.19
2022-10-21T22:29:31.556Z,80329.19
2022-10-21T22:31:59.656Z,80329.19
2022-10-21T22:34:30.312Z,80329.19
2022-10-21T22:37:01.297Z,80329.19
2022-10-21T22:39:29.517Z,80329.19
2022-10-21T22:41:57.595Z,80329.19
2022-10-21T22:44:28.609Z,80329.19
2022-10-21T22:46:56.625Z,80329.19
2022-10-21T22:49:24.697Z,80329.19
2022-10-21T22:51:52.756Z,80329.19
2022-10-21T22:54:46.460Z,80329.19
2022-10-21T22:57:08.844Z,80329.19
2022-10-21T22:59:36.886Z,80329.19
2022-10-21T23:02:08.375Z,80329.19
2022-10-21T23:04:36.626Z,80329.19
2022-10-21T23:07:04.663Z,80329.19
2022-10-21T23:09:32.847Z,80329.19
2022-10-21T23:12:00.960Z,80329.19
2022-10-21T23:14:29.043Z,80329.19
2022-10-21T23:16:57.112Z,80329.19
2022-10-21T23:19:25.356Z,80329.19
2022-10-21T23:21:55.822Z,80329.19
2022-10-21T23:24:23.921Z,80329.19
2022-10-21T23:26:59.033Z,80329.19
2022-10-21T23:29:29.524Z,80329.19
2022-10-21T23:31:57.531Z,80329.19
2022-10-21T23:34:28.554Z,80329.19
2022-10-21T23:36:56.731Z,80329.19
2022-10-21T23:39:24.807Z,80329.19
2022-10-21T23:41:52.908Z,80329.19
2022-10-21T23:44:21.055Z,80329.19
2022-10-21T23:46:49.124Z,80329.19
2022-10-21T23:49:17.208Z,80329.19
2022-10-21T23:51:45.295Z,80329.19
2022-10-21T23:54:13.353Z,80329.19
2022-10-21T23:56:41.535Z,80329.19
2022-10-21T23:59:09.574Z,80329.19
